createdAt,value
2019-03-25T00:01:17.854Z,47.29
2019-03-25T00:03:46.202Z,47.29
2019-03-25T00:06:14.421Z,46.22
2019-03-25T00:08:42.414Z,47.11
2019-03-25T00:11:10.565Z,46.95
2019-03-25T00:13:38.639Z,47.16
2019-03-25T00:16:06.850Z,48.05
2019-03-25T00:18:34.830Z,48.65
2019-03-25T00:21:02.883Z,47.88
2019-03-25T00:23:30.865Z,48.52
2019-03-25T00:25:58.822Z,48.29
2019-03-25T00:28:26.880Z,48.98
2019-03-25T00:30:55.059Z,49.01
2019-03-25T00:33:23.148Z,48.61
2019-03-25T00:35:51.074Z,47.74
2019-03-25T00:38:19.069Z,46.61
2019-03-25T00:40:47.080Z,47.55
2019-03-25T00:43:15.065Z,47.82
2019-03-25T00:45:43.062Z,48.79
2019-03-25T00:48:10.985Z,49.04
2019-03-25T00:50:38.977Z,49.05
2019-03-25T00:53:07.026Z,50.02
2019-03-25T00:55:35.014Z,50.95
2019-03-25T00:58:03.054Z,50.65
2019-03-25T01:00:30.993Z,50.43
2019-03-25T01:02:58.990Z,51.04
2019-03-25T01:05:26.992Z,50.21
2019-03-25T01:07:54.987Z,49.59
2019-03-25T01:10:23.090Z,50.09
2019-03-25T01:12:51.118Z,50.52
2019-03-25T01:15:19.107Z,51.36
2019-03-25T01:17:47.113Z,52.30
2019-03-25T01:20:15.311Z,49.55
2019-03-25T01:22:43.421Z,50.99
2019-03-25T01:25:11.325Z,50.08
2019-03-25T01:27:39.309Z,52.35
2019-03-25T01:30:07.707Z,50.54
2019-03-25T01:32:35.752Z,51.56
2019-03-25T01:35:03.994Z,51.54
2019-03-25T01:37:31.991Z,50.89
2019-03-25T01:39:59.956Z,49.99
2019-03-25T01:42:28.014Z,49.95
2019-03-25T01:44:56.046Z,50.85
2019-03-25T01:47:24.014Z,50.74
2019-03-25T01:49:52.047Z,51.00
2019-03-25T01:52:20.101Z,50.81
2019-03-25T01:54:48.081Z,50.88
2019-03-25T01:57:16.086Z,50.56
2019-03-25T01:59:44.078Z,51.22
2019-03-25T02:02:12.095Z,51.77
2019-03-25T02:04:40.134Z,52.59
2019-03-25T02:07:08.151Z,53.42
2019-03-25T02:09:36.102Z,54.39
2019-03-25T02:12:04.227Z,55.09
2019-03-25T02:14:32.264Z,56.29
2019-03-25T02:17:00.265Z,56.42
2019-03-25T02:19:28.176Z,56.48
2019-03-25T02:21:56.166Z,56.22
2019-03-25T02:24:24.148Z,56.53
2019-03-25T02:26:52.079Z,56.84
2019-03-25T02:29:20.081Z,56.69
2019-03-25T02:31:48.110Z,56.84
2019-03-25T02:34:16.201Z,56.74
2019-03-25T02:36:44.213Z,56.63
2019-03-25T02:39:12.153Z,56.90
2019-03-25T02:41:40.132Z,57.12
2019-03-25T02:44:08.157Z,60.60
2019-03-25T02:46:36.187Z,56.79
2019-03-25T02:49:04.318Z,56.45
2019-03-25T02:51:32.291Z,56.55
2019-03-25T02:54:00.269Z,56.42
2019-03-25T02:56:28.285Z,57.29
2019-03-25T02:58:56.282Z,56.95
2019-03-25T03:01:24.252Z,56.91
2019-03-25T03:03:52.262Z,59.01
2019-03-25T03:06:20.248Z,60.34
2019-03-25T03:08:48.189Z,58.46
2019-03-25T03:11:16.172Z,57.86
2019-03-25T03:13:44.181Z,56.50
2019-03-25T03:16:12.250Z,58.58
2019-03-25T03:18:40.265Z,57.94
2019-03-25T03:21:08.227Z,56.82
2019-03-25T03:23:36.254Z,60.07
2019-03-25T03:26:04.479Z,57.57
2019-03-25T03:28:32.477Z,57.64
2019-03-25T03:31:00.595Z,57.88
2019-03-25T03:33:28.538Z,56.41
2019-03-25T03:35:56.737Z,56.51
2019-03-25T03:38:24.805Z,57.03
2019-03-25T03:40:52.838Z,57.61
2019-03-25T03:43:21.073Z,57.23
2019-03-25T03:45:49.093Z,57.52
2019-03-25T03:48:17.063Z,57.29
2019-03-25T03:50:45.137Z,59.37
2019-03-25T03:53:13.259Z,59.96
2019-03-25T03:55:41.280Z,55.15
2019-03-25T03:58:09.302Z,55.95
2019-03-25T04:00:37.384Z,55.42
2019-03-25T04:03:05.515Z,56.16
2019-03-25T04:05:33.562Z,54.87
2019-03-25T04:08:03.662Z,56.04
2019-03-25T04:10:40.484Z,56.48
2019-03-25T04:13:08.662Z,57.65
2019-03-25T04:15:36.722Z,58.86
2019-03-25T04:18:04.797Z,59.43
2019-03-25T04:20:32.879Z,62.25
2019-03-25T04:23:01.076Z,62.36
2019-03-25T04:25:29.130Z,62.33
2019-03-25T04:27:57.228Z,64.70
2019-03-25T04:30:25.478Z,62.41
2019-03-25T04:32:53.544Z,61.75
2019-03-25T04:35:23.869Z,62.33
2019-03-25T04:37:51.793Z,61.81
2019-03-25T04:40:19.934Z,62.94
2019-03-25T04:42:48.071Z,63.63
2019-03-25T04:45:16.475Z,67.24
2019-03-25T04:47:44.658Z,63.56
2019-03-25T04:50:12.919Z,64.64
2019-03-25T04:52:41.011Z,62.35
2019-03-25T04:55:09.594Z,61.16
2019-03-25T04:57:37.903Z,59.57
2019-03-25T05:00:07.575Z,59.19
2019-03-25T05:02:35.596Z,58.62
2019-03-25T05:05:03.855Z,58.45
2019-03-25T05:07:33.173Z,58.26
2019-03-25T05:10:01.238Z,57.72
2019-03-25T05:12:29.426Z,57.59
2019-03-25T05:14:57.491Z,59.14
2019-03-25T05:17:25.530Z,60.21
2019-03-25T05:19:53.592Z,57.49
2019-03-25T05:22:21.668Z,56.32
2019-03-25T05:24:49.769Z,57.06
2019-03-25T05:27:19.602Z,56.37
2019-03-25T05:29:48.294Z,58.67
2019-03-25T05:32:16.470Z,56.41
2019-03-25T05:34:44.596Z,55.63
2019-03-25T05:37:12.749Z,55.20
2019-03-25T05:39:40.852Z,56.33
2019-03-25T05:42:09.656Z,55.62
2019-03-25T05:44:37.761Z,54.29
2019-03-25T05:47:05.935Z,52.82
2019-03-25T05:49:33.992Z,56.54
2019-03-25T05:52:01.921Z,53.33
2019-03-25T05:54:29.991Z,53.36
2019-03-25T05:57:02.878Z,54.63
2019-03-25T05:59:27.997Z,52.77
2019-03-25T06:01:56.019Z,53.60
2019-03-25T06:04:24.073Z,54.31
2019-03-25T06:06:52.306Z,53.52
2019-03-25T06:09:20.464Z,53.08
2019-03-25T06:11:48.493Z,52.46
2019-03-25T06:14:16.570Z,51.97
2019-03-25T06:16:44.616Z,54.03
2019-03-25T06:19:12.820Z,52.07
2019-03-25T06:21:40.819Z,52.27
2019-03-25T06:24:08.881Z,50.39
2019-03-25T06:26:36.920Z,50.29
2019-03-25T06:29:05.021Z,50.29
2019-03-25T06:31:33.010Z,50.81
2019-03-25T06:34:01.031Z,50.82
2019-03-25T06:36:29.063Z,50.28
2019-03-25T06:38:57.158Z,49.75
2019-03-25T06:41:25.453Z,49.27
2019-03-25T06:43:54.601Z,48.11
2019-03-25T06:46:22.653Z,47.49
2019-03-25T06:48:50.811Z,48.19
2019-03-25T06:51:19.002Z,46.88
2019-03-25T06:53:52.441Z,47.22
2019-03-25T06:56:20.565Z,46.67
2019-03-25T06:58:48.648Z,46.45
2019-03-25T07:01:16.690Z,44.74
2019-03-25T07:03:44.783Z,44.86
2019-03-25T07:06:12.760Z,44.00
2019-03-25T07:08:40.929Z,43.34
2019-03-25T07:11:09.859Z,42.36
2019-03-25T07:13:37.893Z,42.05
2019-03-25T07:16:05.953Z,42.07
2019-03-25T07:18:33.964Z,41.88
2019-03-25T07:21:02.033Z,41.89
2019-03-25T07:23:30.181Z,42.05
2019-03-25T07:25:58.269Z,41.51
2019-03-25T07:28:26.324Z,41.67
2019-03-25T07:30:54.368Z,42.39
2019-03-25T07:33:22.742Z,42.05
2019-03-25T07:35:50.733Z,41.96
2019-03-25T07:38:18.831Z,41.81
2019-03-25T07:40:46.966Z,41.69
2019-03-25T07:43:15.186Z,41.84
2019-03-25T07:45:44.388Z,41.43
2019-03-25T07:48:12.456Z,40.61
2019-03-25T07:50:40.477Z,41.39
2019-03-25T07:53:08.586Z,42.10
2019-03-25T07:55:36.697Z,41.69
2019-03-25T07:58:04.819Z,41.01
2019-03-25T08:00:34.371Z,40.60
2019-03-25T08:03:02.648Z,39.90
2019-03-25T08:05:30.697Z,39.92
2019-03-25T08:07:59.217Z,39.63
2019-03-25T08:10:32.545Z,40.36
2019-03-25T08:13:00.708Z,40.24
2019-03-25T08:15:28.939Z,39.98
2019-03-25T08:17:56.955Z,38.98
2019-03-25T08:20:24.892Z,37.96
2019-03-25T08:22:52.952Z,37.56
2019-03-25T08:25:20.976Z,37.76
2019-03-25T08:27:59.381Z,37.37
2019-03-25T08:30:19.128Z,37.12
2019-03-25T08:32:47.333Z,36.08
2019-03-25T08:35:15.396Z,36.62
2019-03-25T08:37:43.457Z,36.88
2019-03-25T08:40:11.872Z,35.79
2019-03-25T08:42:40.166Z,35.63
2019-03-25T08:45:08.957Z,35.19
2019-03-25T08:47:36.962Z,35.18
2019-03-25T08:50:08.896Z,35.72
2019-03-25T08:52:36.961Z,35.81
2019-03-25T08:55:05.247Z,34.97
2019-03-25T08:57:33.357Z,34.39
2019-03-25T09:00:01.512Z,34.74
2019-03-25T09:02:29.543Z,34.61
2019-03-25T09:04:57.501Z,34.09
2019-03-25T09:07:25.518Z,33.73
2019-03-25T09:09:53.534Z,32.96
2019-03-25T09:12:21.582Z,33.68
2019-03-25T09:14:49.681Z,33.43
2019-03-25T09:17:17.732Z,33.74
2019-03-25T09:19:45.657Z,33.52
2019-03-25T09:22:13.797Z,33.41
2019-03-25T09:24:41.885Z,32.92
2019-03-25T09:27:10.059Z,33.27
2019-03-25T09:29:38.158Z,33.54
2019-03-25T09:32:06.370Z,33.25
2019-03-25T09:34:34.579Z,33.12
2019-03-25T09:37:02.673Z,33.03
2019-03-25T09:39:30.762Z,32.93
2019-03-25T09:41:59.295Z,32.87
2019-03-25T09:44:27.425Z,32.10
2019-03-25T09:46:55.781Z,31.75
2019-03-25T09:49:23.931Z,31.06
2019-03-25T09:51:52.977Z,30.96
2019-03-25T09:54:21.350Z,30.39
2019-03-25T09:56:49.424Z,30.77
2019-03-25T09:59:17.448Z,31.08
2019-03-25T10:01:45.896Z,31.35
2019-03-25T10:04:13.941Z,30.88
2019-03-25T10:06:44.099Z,30.17
2019-03-25T10:09:12.322Z,29.77
2019-03-25T10:11:40.391Z,29.49
2019-03-25T10:14:08.634Z,29.25
2019-03-25T10:16:37.195Z,28.76
2019-03-25T10:19:05.374Z,28.51
2019-03-25T10:21:33.916Z,28.31
2019-03-25T10:24:02.061Z,29.11
2019-03-25T10:26:30.230Z,28.93
2019-03-25T10:28:58.377Z,28.70
2019-03-25T10:31:26.690Z,28.17
2019-03-25T10:33:54.777Z,27.93
2019-03-25T10:36:22.982Z,27.99
2019-03-25T10:38:51.258Z,28.21
2019-03-25T10:41:19.412Z,28.20
2019-03-25T10:43:47.439Z,28.15
2019-03-25T10:46:15.688Z,28.16
2019-03-25T10:48:43.841Z,27.59
2019-03-25T10:51:11.993Z,27.16
2019-03-25T10:53:40.337Z,25.45
2019-03-25T10:56:08.607Z,25.98
2019-03-25T10:58:36.602Z,25.73
2019-03-25T11:01:05.370Z,26.05
2019-03-25T11:03:33.459Z,25.52
2019-03-25T11:06:01.446Z,25.56
2019-03-25T11:08:29.705Z,25.83
2019-03-25T11:10:58.204Z,26.59
2019-03-25T11:13:26.346Z,26.23
2019-03-25T11:15:54.431Z,25.98
2019-03-25T11:18:22.581Z,25.90
2019-03-25T11:20:50.865Z,25.49
2019-03-25T11:23:19.106Z,24.84
2019-03-25T11:25:47.775Z,24.58
2019-03-25T11:28:15.811Z,24.53
2019-03-25T11:30:51.846Z,23.52
2019-03-25T11:33:20.632Z,23.41
2019-03-25T11:35:48.794Z,23.87
2019-03-25T11:38:16.811Z,23.27
2019-03-25T11:40:44.970Z,22.61
2019-03-25T11:43:13.135Z,22.66
2019-03-25T11:45:41.244Z,22.30
2019-03-25T11:48:09.356Z,22.27
2019-03-25T11:50:37.358Z,22.23
2019-03-25T11:53:05.423Z,22.22
2019-03-25T11:55:33.878Z,22.41
2019-03-25T11:58:01.932Z,22.57
2019-03-25T12:00:30.415Z,21.97
2019-03-25T12:02:58.600Z,22.12
2019-03-25T12:05:26.663Z,21.88
2019-03-25T12:07:54.743Z,22.12
2019-03-25T12:10:23.094Z,21.86
2019-03-25T12:12:51.088Z,21.76
2019-03-25T12:15:19.112Z,21.56
2019-03-25T12:17:47.398Z,21.87
2019-03-25T12:20:15.560Z,21.44
2019-03-25T12:22:43.776Z,21.23
2019-03-25T12:25:11.928Z,21.48
2019-03-25T12:27:40.640Z,21.46
2019-03-25T12:30:09.460Z,21.08
2019-03-25T12:32:37.555Z,21.67
2019-03-25T12:35:06.357Z,21.86
2019-03-25T12:37:34.348Z,21.33
2019-03-25T12:40:02.454Z,21.40
2019-03-25T12:42:30.622Z,21.78
2019-03-25T12:44:58.841Z,21.68
2019-03-25T12:47:27.134Z,21.47
2019-03-25T12:49:56.443Z,21.48
2019-03-25T12:52:24.482Z,21.26
2019-03-25T12:54:52.477Z,21.35
2019-03-25T12:57:20.563Z,22.21
2019-03-25T12:59:48.655Z,21.16
2019-03-25T13:02:16.630Z,21.19
2019-03-25T13:04:44.652Z,21.26
2019-03-25T13:07:12.987Z,21.47
2019-03-25T13:09:41.429Z,21.46
2019-03-25T13:12:09.516Z,21.26
2019-03-25T13:14:37.613Z,21.25
2019-03-25T13:17:05.766Z,21.10
2019-03-25T13:19:33.852Z,21.44
2019-03-25T13:22:02.114Z,20.81
2019-03-25T13:24:30.341Z,20.79
2019-03-25T13:26:58.337Z,20.57
2019-03-25T13:29:26.487Z,20.45
2019-03-25T13:31:54.681Z,20.12
2019-03-25T13:34:22.692Z,20.55
2019-03-25T13:36:50.780Z,20.50
2019-03-25T13:39:18.847Z,20.10
2019-03-25T13:41:46.852Z,20.35
2019-03-25T13:44:14.878Z,20.71
2019-03-25T13:46:43.277Z,20.19
2019-03-25T13:49:11.566Z,20.23
2019-03-25T13:51:39.760Z,20.55
2019-03-25T13:54:07.943Z,20.08
2019-03-25T13:56:35.918Z,19.92
2019-03-25T13:59:04.072Z,19.91
2019-03-25T14:01:32.078Z,19.60
2019-03-25T14:04:00.111Z,20.02
2019-03-25T14:06:28.171Z,20.32
2019-03-25T14:08:56.272Z,19.78
2019-03-25T14:11:24.370Z,20.01
2019-03-25T14:13:52.474Z,19.70
2019-03-25T14:16:20.506Z,19.75
2019-03-25T14:18:48.541Z,19.25
2019-03-25T14:21:16.649Z,19.30
2019-03-25T14:23:44.667Z,19.20
2019-03-25T14:26:12.660Z,19.18
2019-03-25T14:28:40.759Z,19.15
2019-03-25T14:31:08.840Z,18.99
2019-03-25T14:33:36.834Z,18.68
2019-03-25T14:36:05.035Z,18.26
2019-03-25T14:38:33.204Z,18.47
2019-03-25T14:41:01.284Z,17.89
2019-03-25T14:43:29.329Z,18.40
2019-03-25T14:45:57.400Z,18.13
2019-03-25T14:48:25.408Z,18.40
2019-03-25T14:50:53.552Z,18.50
2019-03-25T14:53:21.623Z,18.43
2019-03-25T14:55:49.682Z,18.20
2019-03-25T14:58:17.754Z,18.56
2019-03-25T15:00:45.830Z,18.29
2019-03-25T15:03:13.842Z,18.03
2019-03-25T15:05:41.879Z,18.55
2019-03-25T15:08:09.943Z,18.93
2019-03-25T15:10:37.946Z,18.75
2019-03-25T15:13:06.051Z,18.82
2019-03-25T15:15:34.145Z,18.85
2019-03-25T15:18:02.366Z,18.57
2019-03-25T15:20:30.445Z,18.51
2019-03-25T15:22:58.495Z,15.44
2019-03-25T15:25:27.114Z,14.87
2019-03-25T15:27:55.188Z,15.40
2019-03-25T15:30:23.234Z,15.13
2019-03-25T15:32:51.266Z,15.47
2019-03-25T15:35:19.358Z,14.96
2019-03-25T15:37:47.426Z,15.46
2019-03-25T15:40:16.050Z,15.29
2019-03-25T15:42:44.113Z,15.30
2019-03-25T15:45:12.300Z,15.10
2019-03-25T15:47:43.786Z,15.00
2019-03-25T15:50:11.413Z,15.03
2019-03-25T15:52:39.597Z,15.10
2019-03-25T15:55:09.089Z,15.30
2019-03-25T15:57:39.556Z,15.63
2019-03-25T16:00:12.372Z,15.86
2019-03-25T16:02:40.638Z,16.14
2019-03-25T16:05:08.811Z,16.41
2019-03-25T16:07:36.848Z,16.52
2019-03-25T16:10:05.618Z,16.56
2019-03-25T16:12:33.717Z,16.70
2019-03-25T16:15:01.931Z,16.78
2019-03-25T16:17:29.987Z,16.78
2019-03-25T16:19:58.039Z,17.02
2019-03-25T16:22:26.092Z,17.13
2019-03-25T16:24:54.161Z,17.35
2019-03-25T16:27:22.274Z,17.61
2019-03-25T16:29:50.330Z,17.76
2019-03-25T16:32:18.401Z,17.92
2019-03-25T16:34:46.748Z,18.21
2019-03-25T16:37:14.716Z,18.07
2019-03-25T16:39:42.719Z,18.14
2019-03-25T16:42:16.896Z,18.13
2019-03-25T16:44:45.034Z,17.67
2019-03-25T16:47:14.475Z,18.27
2019-03-25T16:49:42.528Z,17.86
2019-03-25T16:52:10.559Z,17.83
2019-03-25T16:54:40.525Z,18.00
2019-03-25T16:57:08.612Z,17.81
2019-03-25T16:59:36.733Z,17.91
2019-03-25T17:02:04.831Z,17.19
2019-03-25T17:04:32.904Z,17.57
2019-03-25T17:07:00.900Z,17.50
2019-03-25T17:09:28.906Z,17.19
2019-03-25T17:11:57.035Z,17.78
2019-03-25T17:14:25.590Z,17.59
2019-03-25T17:16:53.634Z,17.94
2019-03-25T17:19:21.658Z,18.43
2019-03-25T17:21:57.615Z,18.77
2019-03-25T17:24:19.615Z,19.80
2019-03-25T17:26:47.720Z,20.33
2019-03-25T17:29:15.756Z,20.74
2019-03-25T17:31:43.827Z,21.74
2019-03-25T17:34:11.900Z,21.99
2019-03-25T17:36:40.031Z,22.54
2019-03-25T17:39:09.357Z,22.97
2019-03-25T17:41:37.464Z,23.08
2019-03-25T17:44:05.486Z,23.27
2019-03-25T17:46:33.636Z,23.57
2019-03-25T17:49:01.668Z,24.07
2019-03-25T17:51:29.680Z,24.27
2019-03-25T17:53:57.866Z,24.68
2019-03-25T17:56:26.025Z,25.05
2019-03-25T17:58:54.499Z,25.51
2019-03-25T18:01:32.550Z,25.96
2019-03-25T18:03:59.599Z,26.44
2019-03-25T18:06:27.734Z,27.05
2019-03-25T18:08:56.706Z,27.13
2019-03-25T18:11:24.803Z,27.33
2019-03-25T18:13:53.828Z,27.43
2019-03-25T18:16:22.255Z,27.75
2019-03-25T18:18:50.404Z,27.91
2019-03-25T18:21:18.605Z,28.17
2019-03-25T18:23:46.641Z,28.51
2019-03-25T18:26:15.220Z,28.79
2019-03-25T18:28:43.391Z,29.02
2019-03-25T18:31:11.433Z,29.29
2019-03-25T18:33:39.455Z,29.53
2019-03-25T18:36:07.564Z,29.52
2019-03-25T18:38:35.635Z,29.72
2019-03-25T18:41:03.669Z,29.99
2019-03-25T18:43:31.722Z,30.66
2019-03-25T18:45:59.856Z,30.99
2019-03-25T18:48:28.584Z,31.56
2019-03-25T18:50:56.589Z,32.31
2019-03-25T18:53:24.927Z,32.93
2019-03-25T18:55:53.383Z,32.71
2019-03-25T18:58:21.581Z,33.04
2019-03-25T19:00:49.657Z,33.51
2019-03-25T19:03:18.559Z,34.02
2019-03-25T19:05:47.123Z,34.44
2019-03-25T19:08:15.357Z,34.98
2019-03-25T19:10:45.335Z,35.32
2019-03-25T19:13:13.334Z,35.35
2019-03-25T19:15:41.556Z,35.13
2019-03-25T19:18:10.034Z,35.21
2019-03-25T19:20:38.314Z,35.54
2019-03-25T19:23:06.649Z,35.73
2019-03-25T19:25:37.191Z,36.28
2019-03-25T19:28:05.630Z,36.49
2019-03-25T19:30:34.032Z,36.64
2019-03-25T19:33:02.093Z,36.79
2019-03-25T19:35:30.405Z,36.82
2019-03-25T19:37:58.580Z,37.00
2019-03-25T19:40:26.811Z,37.33
2019-03-25T19:42:54.959Z,37.71
2019-03-25T19:45:23.459Z,37.98
2019-03-25T19:47:52.354Z,38.42
2019-03-25T19:50:20.877Z,38.54
2019-03-25T19:52:49.240Z,38.57
2019-03-25T19:55:17.235Z,38.85
2019-03-25T19:57:45.433Z,39.06
2019-03-25T20:00:13.915Z,39.23
2019-03-25T20:02:41.987Z,39.15
2019-03-25T20:05:10.258Z,39.52
2019-03-25T20:07:38.827Z,40.01
2019-03-25T20:10:09.260Z,40.31
2019-03-25T20:12:38.426Z,40.53
2019-03-25T20:15:07.070Z,40.84
2019-03-25T20:17:35.379Z,40.96
2019-03-25T20:20:04.209Z,41.48
2019-03-25T20:22:32.496Z,41.08
2019-03-25T20:25:01.227Z,40.92
2019-03-25T20:27:29.412Z,40.97
2019-03-25T20:29:58.248Z,41.47
2019-03-25T20:32:31.633Z,41.18
2019-03-25T20:34:56.454Z,40.76
2019-03-25T20:37:24.896Z,40.61
2019-03-25T20:39:52.887Z,41.00
2019-03-25T20:42:21.022Z,41.42
2019-03-25T20:44:49.074Z,40.86
2019-03-25T20:47:17.376Z,41.15
2019-03-25T20:49:45.478Z,41.72
2019-03-25T20:52:13.530Z,41.85
2019-03-25T20:54:41.951Z,41.87
2019-03-25T20:57:10.014Z,41.51
2019-03-25T20:59:39.740Z,41.31
2019-03-25T21:02:07.943Z,41.30
2019-03-25T21:04:36.148Z,41.11
2019-03-25T21:07:05.210Z,40.85
2019-03-25T21:09:33.295Z,40.47
2019-03-25T21:12:01.392Z,40.21
2019-03-25T21:14:29.721Z,39.12
2019-03-25T21:16:57.980Z,39.66
2019-03-25T21:19:26.139Z,39.48
2019-03-25T21:21:54.288Z,40.03
2019-03-25T21:24:22.370Z,39.87
2019-03-25T21:26:50.891Z,40.12
2019-03-25T21:29:18.925Z,40.09
2019-03-25T21:31:47.013Z,40.15
2019-03-25T21:34:15.016Z,40.26
2019-03-25T21:36:43.132Z,39.70
2019-03-25T21:39:11.279Z,40.07
2019-03-25T21:41:39.404Z,39.93
2019-03-25T21:44:07.732Z,39.34
2019-03-25T21:46:35.798Z,39.46
2019-03-25T21:49:04.040Z,39.92
2019-03-25T21:51:32.239Z,39.26
2019-03-25T21:54:00.295Z,39.39
2019-03-25T21:56:28.551Z,39.49
2019-03-25T21:58:56.588Z,39.61
2019-03-25T22:01:24.957Z,39.43
2019-03-25T22:03:53.195Z,39.13
2019-03-25T22:06:21.385Z,39.18
2019-03-25T22:08:49.509Z,39.30
2019-03-25T22:11:17.533Z,39.48
2019-03-25T22:13:45.515Z,39.49
2019-03-25T22:16:13.703Z,39.36
2019-03-25T22:18:41.912Z,38.99
2019-03-25T22:21:09.940Z,39.04
2019-03-25T22:23:38.014Z,38.70
2019-03-25T22:26:05.938Z,38.75
2019-03-25T22:28:33.946Z,38.62
2019-03-25T22:31:01.976Z,38.09
2019-03-25T22:33:30.038Z,38.46
2019-03-25T22:35:57.978Z,37.92
2019-03-25T22:38:26.014Z,37.89
2019-03-25T22:40:54.016Z,37.89
2019-03-25T22:43:21.966Z,37.91
2019-03-25T22:45:49.977Z,37.85
2019-03-25T22:48:18.082Z,37.72
2019-03-25T22:50:46.178Z,38.31
2019-03-25T22:53:14.125Z,39.03
2019-03-25T22:55:42.172Z,39.78
2019-03-25T22:58:10.193Z,40.69
2019-03-25T23:00:43.875Z,41.52
2019-03-25T23:03:12.047Z,42.22
2019-03-25T23:05:40.172Z,42.44
2019-03-25T23:08:08.173Z,42.59
2019-03-25T23:10:36.267Z,42.44
2019-03-25T23:13:04.333Z,42.23
2019-03-25T23:15:32.464Z,42.86
2019-03-25T23:18:00.547Z,43.39
2019-03-25T23:20:28.771Z,43.71
2019-03-25T23:22:56.871Z,43.45
2019-03-25T23:25:24.956Z,43.41
2019-03-25T23:27:55.497Z,43.38
2019-03-25T23:30:23.728Z,43.09
2019-03-25T23:32:51.707Z,43.13
2019-03-25T23:35:19.754Z,43.17
2019-03-25T23:37:48.155Z,43.20
2019-03-25T23:40:16.220Z,43.15
2019-03-25T23:42:44.359Z,43.33
2019-03-25T23:45:12.739Z,43.48
2019-03-25T23:47:40.760Z,43.47
2019-03-25T23:50:09.011Z,43.28
2019-03-25T23:52:37.049Z,43.28
2019-03-25T23:55:06.058Z,43.75
2019-03-25T23:57:34.135Z,43.68
